Time;durP1;ratioP1;P1;durP2;ratioP2;P2;SDS_P1;SDS_P2;PMS_P1;PMS_P2;Temp;Humidity;BMP_temperature;BMP_pressure;BME280_temperature;BME280_humidity;BME280_pressure;Samples;Min_cycle;Max_cycle;Signal;HPM_P1;HPM_P2
2022/06/23 00:01:28;;;;;;;12.45;7.68;;;;;;;16.48;65.38;100893.56;5035108;28;20504;-56
2022/06/23 00:03:58;;;;;;;11.23;7.25;;;;;;;16.47;65.22;100894.47;5034835;28;20053;-56
2022/06/23 00:06:41;;;;;;;14.23;8.63;;;;;;;16.45;65.62;100891.03;5035095;28;20060;-53
2022/06/23 00:09:40;;;;;;;12.63;7.65;;;;;;;16.42;65.75;100903.31;5034516;28;20132;-55
2022/06/23 00:12:25;;;;;;;12.68;7.53;;;;;;;16.39;65.76;100903.41;4992897;28;20172;-53
2022/06/23 00:15:19;;;;;;;11.35;7.07;;;;;;;16.39;65.75;100902.53;4991519;28;20137;-54
2022/06/23 00:17:49;;;;;;;10.27;6.78;;;;;;;16.35;65.57;100899.16;4992167;28;20133;-55
2022/06/23 00:20:26;;;;;;;14.40;9.00;;;;;;;16.34;65.67;100897.44;5010651;28;20057;-56
2022/06/23 00:23:02;;;;;;;15.07;9.02;;;;;;;16.32;65.67;100888.78;5034145;28;20076;-55
2022/06/23 00:26:01;;;;;;;10.90;7.40;;;;;;;16.32;66.14;100886.19;5034467;28;20041;-53
2022/06/23 00:28:37;;;;;;;11.13;7.53;;;;;;;16.29;66.08;100896.72;5034132;28;20053;-57
2022/06/23 00:31:25;;;;;;;10.82;8.05;;;;;;;16.28;65.85;100904.63;5034647;28;20076;-56
2022/06/23 00:33:53;;;;;;;11.88;8.15;;;;;;;16.24;65.68;100898.63;5034441;28;20550;-56
2022/06/23 00:36:33;;;;;;;12.20;6.95;;;;;;;16.24;65.94;100903.00;5034312;28;20056;-56
2022/06/23 00:39:01;;;;;;;14.07;8.43;;;;;;;16.20;65.93;100902.22;5034321;28;20053;-57
2022/06/23 00:41:43;;;;;;;13.48;8.40;;;;;;;16.19;65.75;100900.53;5034336;28;20045;-57
2022/06/23 00:44:32;;;;;;;13.13;8.23;;;;;;;16.18;65.79;100898.81;5033977;28;20757;-55
2022/06/23 00:47:07;;;;;;;13.30;9.38;;;;;;;16.16;66.01;100905.84;5021594;28;20065;-56
2022/06/23 00:49:42;;;;;;;14.88;10.35;;;;;;;16.14;65.97;100905.03;5033823;28;20745;-53
2022/06/23 00:52:22;;;;;;;13.30;9.35;;;;;;;16.12;65.63;100896.34;5033150;28;20053;-56
2022/06/23 00:54:57;;;;;;;14.43;10.30;;;;;;;16.10;66.28;100900.75;5034101;28;20049;-56
2022/06/23 00:57:35;;;;;;;16.17;10.15;;;;;;;16.09;66.03;100888.56;5033757;28;20472;-54
2022/06/23 01:00:21;;;;;;;14.95;10.38;;;;;;;16.07;65.87;100885.16;5033502;28;20643;-55
2022/06/23 01:03:09;;;;;;;13.93;9.23;;;;;;;16.04;65.93;100896.56;5033494;28;20049;-53
2022/06/23 01:05:43;;;;;;;15.60;9.77;;;;;;;16.01;65.87;100888.81;5033952;28;20053;-55
2022/06/23 01:08:28;;;;;;;14.52;9.65;;;;;;;16.00;66.24;100888.84;5033857;28;20049;-56
2022/06/23 01:11:03;;;;;;;;;;;;;;;15.92;66.59;100885.59;5033210;28;20143;-55
2022/06/23 01:13:42;;;;;;;12.70;8.50;;;;;;;15.95;66.61;100890.72;5033790;28;19921;-53
2022/06/23 01:16:16;;;;;;;13.15;8.50;;;;;;;15.95;66.40;100893.34;5033310;28;20041;-55
2022/06/23 01:18:53;;;;;;;10.75;7.78;;;;;;;15.95;66.63;100896.81;5033419;28;20087;-53
2022/06/23 01:21:27;;;;;;;13.23;8.13;;;;;;;15.94;66.53;100899.47;5033815;28;20056;-55
2022/06/23 01:24:10;;;;;;;12.57;8.00;;;;;;;15.92;66.46;100901.28;5032082;28;20443;-53
2022/06/23 01:27:26;;;;;;;16.13;9.45;;;;;;;15.92;66.31;100903.88;5033306;28;20132;-55
2022/06/23 01:30:02;;;;;;;11.77;7.63;;;;;;;15.89;66.08;100906.59;5013490;28;20060;-57
2022/06/23 01:32:41;;;;;;;13.63;8.82;;;;;;;15.85;66.24;100903.22;5013540;28;20057;-54
2022/06/23 01:35:20;;;;;;;22.95;16.02;;;;;;;15.84;66.73;100908.47;5013263;28;20057;-53
2022/06/23 01:37:54;;;;;;;17.48;11.55;;;;;;;15.83;66.60;100906.75;5013293;28;20538;-56
2022/06/23 01:40:29;;;;;;;18.38;12.85;;;;;;;15.82;66.80;100910.28;5013246;28;20050;-56
2022/06/23 01:43:04;;;;;;;19.92;12.02;;;;;;;15.81;66.46;100914.66;5013281;28;20894;-56
2022/06/23 01:45:50;;;;;;;;;;;;;;;15.74;66.72;100913.09;5023372;28;20057;-54
2022/06/23 01:48:51;;;;;;;16.40;10.45;;;;;;;15.75;66.73;100914.81;5032390;28;19921;-54
2022/06/23 01:51:21;;;;;;;16.73;10.32;;;;;;;15.75;66.29;100923.50;5032446;28;20057;-56
2022/06/23 01:53:50;;;;;;;16.83;10.20;;;;;;;15.74;66.36;100916.56;5032832;28;20076;-56
2022/06/23 01:56:39;;;;;;;17.35;9.95;;;;;;;15.73;66.52;100919.22;5029904;28;20052;-57
2022/06/23 01:59:48;;;;;;;14.45;9.10;;;;;;;15.74;66.98;100919.19;5032484;28;20065;-57
2022/06/23 02:02:29;;;;;;;14.30;8.32;;;;;;;15.71;66.79;100919.25;5032989;28;20050;-55
2022/06/23 02:05:07;;;;;;;15.88;9.13;;;;;;;15.68;66.83;100919.34;5033530;28;20053;-54
2022/06/23 02:07:42;;;;;;;10.40;7.68;;;;;;;15.67;66.63;100922.00;5032900;28;20064;-53
2022/06/23 02:10:19;;;;;;;13.95;8.68;;;;;;;15.64;66.53;100917.72;5033163;28;20081;-53
2022/06/23 02:12:57;;;;;;;15.20;8.90;;;;;;;15.63;66.59;100916.00;5032999;28;20049;-54
2022/06/23 02:15:34;;;;;;;13.48;7.70;;;;;;;15.62;66.72;100909.06;5035992;28;20050;-54
2022/06/23 02:18:18;;;;;;;13.45;7.65;;;;;;;15.62;66.54;100910.81;5037243;28;20148;-54
2022/06/23 02:20:55;;;;;;;13.38;7.85;;;;;;;15.60;66.95;100923.88;5037297;28;20053;-53
2022/06/23 02:23:29;;;;;;;11.20;6.47;;;;;;;15.60;66.99;100916.06;5037246;28;20057;-53
2022/06/23 02:26:08;;;;;;;10.20;6.75;;;;;;;15.59;66.81;100929.16;5036424;28;20057;-53
2022/06/23 02:28:44;;;;;;;12.77;7.00;;;;;;;15.58;66.96;100928.28;5036941;28;20083;-54
2022/06/23 02:31:21;;;;;;;18.15;8.60;;;;;;;15.58;66.75;100923.06;5037019;28;20056;-53
2022/06/23 02:33:59;;;;;;;14.20;7.20;;;;;;;15.56;66.96;100935.28;5037139;28;20451;-55
2022/06/23 02:36:38;;;;;;;16.35;7.88;;;;;;;15.55;67.18;100923.13;5036969;28;20057;-53
2022/06/23 02:39:17;;;;;;;12.43;7.47;;;;;;;15.55;67.34;100932.72;5036824;28;20053;-53
2022/06/23 02:41:59;;;;;;;10.57;6.30;;;;;;;15.52;67.32;100925.81;5036951;28;20140;-56
2022/06/23 02:44:55;;;;;;;14.45;7.53;;;;;;;15.53;67.20;100930.13;5036893;28;20136;-57
2022/06/23 02:47:37;;;;;;;10.63;6.18;;;;;;;15.54;66.84;100928.38;5036265;28;20359;-56
2022/06/23 02:50:38;;;;;;;14.20;7.65;;;;;;;15.51;66.99;100928.47;5036792;28;20061;-54
2022/06/23 02:53:28;;;;;;;12.85;7.85;;;;;;;15.52;67.42;100938.88;5036190;28;20064;-56
2022/06/23 02:56:14;;;;;;;11.18;6.55;;;;;;;15.56;67.32;100937.91;5035993;28;20049;-56
2022/06/23 02:58:49;;;;;;;8.80;5.93;;;;;;;15.60;67.19;100943.94;5036432;28;20041;-56
2022/06/23 03:01:28;;;;;;;8.93;6.13;;;;;;;15.67;67.22;100943.75;5036202;28;20473;-56
2022/06/23 03:04:05;;;;;;;13.27;7.70;;;;;;;15.73;67.11;100948.81;5035999;28;20292;-57
2022/06/23 03:06:46;;;;;;;11.38;6.22;;;;;;;15.80;67.00;100949.53;5036202;28;20447;-55
2022/06/23 03:09:23;;;;;;;13.18;7.60;;;;;;;15.86;67.08;100948.50;5036160;28;20451;-57
2022/06/23 03:11:56;;;;;;;9.73;6.80;;;;;;;15.93;66.98;100950.03;5036094;28;20138;-57
2022/06/23 03:14:39;;;;;;;12.18;6.28;;;;;;;16.03;66.77;100959.34;5036486;28;20053;-54
2022/06/23 03:17:17;;;;;;;9.40;6.40;;;;;;;16.12;66.65;100960.84;5035902;28;20041;-56
2022/06/23 03:19:52;;;;;;;10.35;6.68;;;;;;;16.23;66.57;100959.69;5036015;28;20060;-56
2022/06/23 03:22:32;;;;;;;15.40;7.70;;;;;;;16.39;66.60;100955.72;5035813;28;20533;-56
2022/06/23 03:25:08;;;;;;;10.57;6.55;;;;;;;16.52;66.35;100961.47;5036080;28;20554;-54
2022/06/23 03:27:49;;;;;;;14.55;6.80;;;;;;;16.66;66.07;100953.25;5035733;28;20050;-54
2022/06/23 03:30:25;;;;;;;12.07;7.45;;;;;;;16.78;65.65;100963.34;5035872;28;20148;-57
2022/06/23 03:33:00;;;;;;;12.38;6.18;;;;;;;16.90;65.45;100968.22;5035492;28;20049;-56
2022/06/23 03:35:43;;;;;;;11.80;6.35;;;;;;;17.01;65.40;100971.34;5035835;28;20045;-55
2022/06/23 03:41:39;;;;;;;10.93;6.80;;;;;;;17.35;64.83;100968.53;5035462;28;20103;-57
2022/06/23 03:44:24;;;;;;;13.05;6.35;;;;;;;17.57;64.55;100976.53;5035151;28;20060;-55
2022/06/23 03:47:20;;;;;;;10.60;6.25;;;;;;;17.78;64.18;100968.91;5022176;28;20058;-53
2022/06/23 03:49:52;;;;;;;14.05;6.18;;;;;;;17.95;63.61;100966.56;5035320;28;20509;-54
2022/06/23 03:52:32;;;;;;;10.15;6.43;;;;;;;18.16;63.32;100965.78;5035614;28;20061;-53
2022/06/23 03:55:08;;;;;;;18.02;7.80;;;;;;;18.38;62.85;100975.53;5035654;28;20139;-54
2022/06/23 03:57:47;;;;;;;11.23;6.65;;;;;;;18.54;62.34;100974.88;5035161;28;20053;-54
2022/06/23 04:00:55;;;;;;;10.38;6.65;;;;;;;18.75;61.94;100978.53;5035104;28;20111;-53
2022/06/23 04:03:30;;;;;;;10.93;6.07;;;;;;;18.98;61.32;100976.78;5034668;28;20111;-57
2022/06/23 04:06:24;;;;;;;;;;;;;;;19.15;60.52;100975.19;5035650;28;20608;-56
2022/06/23 04:09:00;;;;;;;11.48;6.20;;;;;;;19.42;60.02;100986.38;5033095;28;19925;-57
2022/06/23 04:11:55;;;;;;;12.00;6.20;;;;;;;19.71;59.55;100986.97;5034940;28;20071;-57
2022/06/23 04:14:51;;;;;;;13.85;7.32;;;;;;;19.98;58.84;100977.91;5035112;28;20053;-56
2022/06/23 04:17:29;;;;;;;16.80;7.68;;;;;;;20.22;58.31;100985.63;5034779;28;20535;-53
2022/06/23 04:20:02;;;;;;;16.15;10.25;;;;;;;20.47;57.89;100983.66;5035137;28;20064;-54
2022/06/23 04:22:39;;;;;;;19.77;10.00;;;;;;;20.70;57.55;100986.09;5035126;28;20065;-53
2022/06/23 04:25:13;;;;;;;16.13;9.13;;;;;;;20.96;56.90;100984.03;5034974;28;20053;-54
2022/06/23 04:27:48;;;;;;;14.63;7.65;;;;;;;21.21;56.22;100989.84;5035028;28;20072;-53
2022/06/23 04:30:32;;;;;;;8.55;5.72;;;;;;;21.44;55.47;100990.56;5034443;28;20533;-53
2022/06/23 04:33:07;;;;;;;10.50;5.68;;;;;;;21.64;55.02;101003.59;5034822;28;20071;-54
2022/06/23 04:35:37;;;;;;;9.95;5.75;;;;;;;21.85;54.87;101013.09;5034559;28;20064;-55
2022/06/23 04:38:15;;;;;;;18.52;6.55;;;;;;;22.07;54.17;101012.03;5034077;28;20049;-54
2022/06/23 04:40:52;;;;;;;38.38;7.75;;;;;;;22.27;53.86;101009.19;5034729;28;20057;-53
2022/06/23 04:43:38;;;;;;;15.30;5.47;;;;;;;22.49;52.96;101001.84;5034798;28;20096;-57
2022/06/23 04:46:13;;;;;;;11.15;5.82;;;;;;;22.74;52.52;101008.44;5034528;28;20055;-57
2022/06/23 04:49:06;;;;;;;8.80;5.20;;;;;;;23.00;51.96;101010.56;5014851;28;20061;-57
2022/06/23 04:51:42;;;;;;;7.90;4.45;;;;;;;23.19;51.58;101011.22;5014729;28;20080;-57
2022/06/23 04:54:20;;;;;;;8.20;4.57;;;;;;;23.42;50.82;101006.44;5014524;28;20477;-57
2022/06/23 04:56:53;;;;;;;9.15;4.95;;;;;;;23.60;50.47;101015.97;5012980;28;20138;-57
2022/06/23 04:59:34;;;;;;;9.82;4.57;;;;;;;23.85;49.71;101020.69;5012308;28;20033;-55
2022/06/23 05:02:20;;;;;;;11.02;4.18;;;;;;;24.08;48.96;101019.34;5012662;28;20351;-54
2022/06/23 05:04:59;;;;;;;9.20;4.05;;;;;;;24.30;48.72;101019.75;5014169;28;20054;-54
2022/06/23 05:07:35;;;;;;;8.38;4.35;;;;;;;24.48;48.05;101029.25;5014533;28;20100;-53
2022/06/23 05:10:08;;;;;;;15.07;4.65;;;;;;;24.68;47.74;101027.16;5014342;28;20541;-54
2022/06/23 05:12:46;;;;;;;9.63;4.18;;;;;;;24.87;47.71;101022.41;5013949;28;20139;-53
2022/06/23 05:15:31;;;;;;;7.43;3.90;;;;;;;25.08;47.05;101036.16;5014216;28;20131;-54
2022/06/23 05:18:06;;;;;;;11.05;3.90;;;;;;;25.25;46.47;101040.34;5014183;28;20136;-53
2022/06/23 05:20:47;;;;;;;6.68;3.30;;;;;;;25.44;45.40;101040.84;5013420;28;20056;-54
2022/06/23 05:23:18;;;;;;;6.18;3.28;;;;;;;25.61;45.23;101039.78;5014067;28;20066;-53
2022/06/23 05:25:52;;;;;;;6.82;3.00;;;;;;;25.76;44.17;101039.63;5014164;28;20049;-53
2022/06/23 05:28:28;;;;;;;32.53;5.45;;;;;;;25.95;43.56;101041.03;5013868;28;20053;-54
2022/06/23 05:31:04;;;;;;;6.18;3.03;;;;;;;26.06;42.86;101041.19;5013899;28;20057;-53
2022/06/23 05:33:35;;;;;;;6.88;3.20;;;;;;;26.16;42.99;101028.97;5014989;28;20060;-53
2022/06/23 05:36:06;;;;;;;8.10;3.25;;;;;;;26.21;42.73;101032.16;5014047;28;20076;-54
2022/06/23 05:38:38;;;;;;;6.35;2.97;;;;;;;26.36;42.18;101035.59;5013917;28;20050;-56
2022/06/23 05:41:15;;;;;;;7.10;2.78;;;;;;;26.53;41.68;101039.72;5013916;28;20073;-57
2022/06/23 05:43:46;;;;;;;11.60;3.17;;;;;;;26.65;41.36;101030.91;5013788;28;20065;-57
2022/06/23 05:46:27;;;;;;;5.22;2.70;;;;;;;26.85;40.96;101035.63;5013896;28;20057;-56
2022/06/23 05:49:04;;;;;;;130.43;11.38;;;;;;;27.00;41.04;101029.25;5032188;28;20433;-58
2022/06/23 05:51:40;;;;;;;7.70;3.20;;;;;;;27.18;40.52;101031.56;5033403;28;20050;-54
2022/06/23 05:54:16;;;;;;;67.20;7.28;;;;;;;27.28;40.72;101029.91;5033195;28;20045;-58
2022/06/23 05:56:52;;;;;;;9.38;3.15;;;;;;;27.37;40.06;101026.56;5033296;28;20069;-54
2022/06/23 05:59:24;;;;;;;12.35;3.50;;;;;;;27.50;39.79;101027.34;5032951;28;20490;-53
2022/06/23 06:02:13;;;;;;;11.23;3.38;;;;;;;27.63;38.57;101022.88;5032544;28;20462;-54
2022/06/23 06:04:46;;;;;;;5.68;2.58;;;;;;;27.80;38.58;101028.72;5022789;28;20087;-56
2022/06/23 06:07:25;;;;;;;5.70;2.70;;;;;;;27.93;38.31;101029.47;5024101;28;20100;-51
2022/06/23 06:09:54;;;;;;;5.43;2.30;;;;;;;28.06;38.19;101035.56;5023642;28;20473;-53
2022/06/23 06:12:30;;;;;;;4.80;2.50;;;;;;;28.14;37.76;101033.19;5032223;28;20057;-55
2022/06/23 06:15:22;;;;;;;4.18;2.63;;;;;;;28.20;37.87;101038.03;5012890;28;20112;-53
2022/06/23 06:18:12;;;;;;;5.88;2.65;;;;;;;28.26;37.86;101034.94;5016656;28;20443;-55
2022/06/23 06:20:40;;;;;;;6.38;2.50;;;;;;;28.44;37.69;101034.44;5032762;28;20183;-52
2022/06/23 06:23:16;;;;;;;12.15;3.17;;;;;;;28.63;37.31;101040.06;5032899;28;20050;-56
2022/06/23 06:25:48;;;;;;;7.68;3.38;;;;;;;28.70;37.15;101046.59;5033081;28;20049;-57
2022/06/23 06:28:19;;;;;;;6.13;2.67;;;;;;;28.63;37.68;101039.22;5032043;28;20136;-57
2022/06/23 06:30:57;;;;;;;5.93;2.65;;;;;;;28.73;37.95;101056.16;5032151;28;20085;-56
2022/06/23 06:33:52;;;;;;;7.47;3.25;;;;;;;28.81;37.98;101059.06;5032019;28;20450;-54
2022/06/23 06:36:34;;;;;;;9.60;3.47;;;;;;;28.79;37.40;101055.69;5032493;28;20050;-56
2022/06/23 06:39:13;;;;;;;6.55;2.72;;;;;;;28.69;38.20;101068.91;5032398;28;20059;-52
2022/06/23 06:41:44;;;;;;;25.08;3.80;;;;;;;28.66;38.15;101061.16;5031812;28;20646;-53
2022/06/23 06:44:21;;;;;;;4.63;3.00;;;;;;;28.67;38.09;101062.84;5032291;28;20054;-53
2022/06/23 06:46:56;;;;;;;6.18;2.80;;;;;;;28.65;38.24;101064.78;5023792;28;20149;-52
2022/06/23 06:49:37;;;;;;;7.53;2.60;;;;;;;28.68;37.81;101067.22;5030775;28;20616;-53
2022/06/23 06:52:08;;;;;;;29.98;4.65;;;;;;;28.88;37.84;101077.16;5031092;28;20441;-51
2022/06/23 06:54:45;;;;;;;5.45;2.95;;;;;;;29.04;37.60;101075.94;5032058;28;20067;-50
2022/06/23 06:57:17;;;;;;;4.10;2.70;;;;;;;29.02;37.23;101077.88;5032732;28;20101;-50
2022/06/23 06:59:56;;;;;;;4.68;2.95;;;;;;;29.06;37.03;101074.00;5030474;28;20049;-53
2022/06/23 07:02:34;;;;;;;17.67;3.10;;;;;;;29.08;36.87;101061.38;5035943;28;20131;-52
2022/06/23 07:05:18;;;;;;;10.80;3.03;;;;;;;29.16;36.29;101064.28;5035830;28;20390;-52
2022/06/23 07:07:52;;;;;;;9.30;2.80;;;;;;;29.11;36.88;101061.97;5035390;28;20073;-52
2022/06/23 07:10:38;;;;;;;16.98;4.57;;;;;;;29.13;36.63;101064.50;5033540;28;20060;-54
2022/06/23 07:13:14;;;;;;;113.68;11.25;;;;;;;29.17;36.73;101071.34;5035499;28;20049;-52
2022/06/23 07:15:51;;;;;;;8.93;2.80;;;;;;;29.27;36.64;101068.75;5036246;28;20073;-51
2022/06/23 07:18:30;;;;;;;6.32;2.95;;;;;;;29.40;36.10;101072.97;5035362;28;20143;-52
2022/06/23 07:21:21;;;;;;;40.28;5.88;;;;;;;29.58;35.31;101069.78;5036023;28;20050;-54
2022/06/23 07:23:56;;;;;;;6.30;2.72;;;;;;;29.77;35.17;101075.31;5019932;28;20045;-54
2022/06/23 07:26:38;;;;;;;11.18;2.90;;;;;;;29.91;34.97;101083.00;5035615;28;20072;-54
2022/06/23 07:29:21;;;;;;;6.05;2.63;;;;;;;30.03;34.81;101082.00;5035587;28;20046;-52
2022/06/23 07:32:03;;;;;;;5.60;2.30;;;;;;;30.24;34.39;101084.69;5019517;28;20045;-52
2022/06/23 07:34:37;;;;;;;9.02;2.70;;;;;;;30.43;34.50;101081.28;5034860;28;20251;-52
2022/06/23 07:37:19;;;;;;;30.48;5.03;;;;;;;30.47;34.29;101082.72;5035127;28;20057;-55
2022/06/23 07:39:54;;;;;;;9.48;2.75;;;;;;;30.48;34.25;101080.88;5014404;28;20049;-52
2022/06/23 07:42:38;;;;;;;10.27;2.83;;;;;;;30.57;34.24;101086.28;5035117;28;20057;-52
2022/06/23 07:45:18;;;;;;;5.25;2.42;;;;;;;30.70;33.62;101081.63;5034841;28;20053;-52
2022/06/23 07:47:48;;;;;;;7.65;2.65;;;;;;;30.73;33.40;101084.00;5034071;28;20115;-52
2022/06/23 07:50:18;;;;;;;230.45;20.35;;;;;;;30.83;33.57;101075.19;5035073;28;20064;-56
2022/06/23 07:52:52;;;;;;;7.80;3.13;;;;;;;30.98;32.96;101081.84;5034995;28;20161;-52
2022/06/23 07:55:24;;;;;;;6.90;3.00;;;;;;;30.90;33.18;101077.16;5035589;28;20147;-53
2022/06/23 07:57:54;;;;;;;7.90;3.25;;;;;;;30.88;33.58;101073.78;5019162;28;20042;-52
2022/06/23 08:00:25;;;;;;;5.00;2.35;;;;;;;30.99;33.45;101072.81;5034620;28;20060;-52
2022/06/23 08:03:07;;;;;;;15.82;3.20;;;;;;;31.10;33.41;101072.72;5032655;28;20049;-56
2022/06/23 08:05:42;;;;;;;73.20;7.38;;;;;;;31.21;33.53;101064.59;5034815;28;20061;-55
2022/06/23 08:08:29;;;;;;;9.38;2.72;;;;;;;31.33;33.02;101070.69;5034576;28;20425;-53
2022/06/23 08:14:00;;;;;;;8.07;2.88;;;;;;;31.51;32.96;101065.50;5017669;28;20060;-54
2022/06/23 08:19:31;;;;;;;6.50;2.65;;;;;;;31.80;32.28;101071.75;5033781;28;20049;-53
2022/06/23 08:22:09;;;;;;;7.30;3.20;;;;;;;31.83;32.26;101066.09;5019291;28;20053;-57
2022/06/23 08:24:49;;;;;;;8.32;2.67;;;;;;;31.96;31.72;101074.69;5033081;28;20466;-57
2022/06/23 08:27:28;;;;;;;15.68;3.22;;;;;;;32.16;31.59;101077.34;5034149;28;20073;-57
2022/06/23 08:30:11;;;;;;;5.75;2.38;;;;;;;32.41;30.81;101068.72;5018841;28;20045;-58
2022/06/23 08:32:47;;;;;;;4.05;2.30;;;;;;;32.52;30.56;101068.53;5032659;28;20064;-56
2022/06/23 08:38:12;;;;;;;10.95;2.75;;;;;;;32.62;30.18;101074.72;5029573;28;20178;-59
2022/06/23 08:41:22;;;;;;;64.35;6.95;;;;;;;32.80;29.90;101076.66;5033745;28;20454;-59
2022/06/23 08:44:01;;;;;;;6.90;2.30;;;;;;;33.01;30.17;101071.88;5017678;28;20057;-55
2022/06/23 08:46:42;;;;;;;6.45;2.65;;;;;;;33.18;30.20;101078.28;5033769;28;20124;-53
2022/06/23 08:49:20;;;;;;;8.20;3.38;;;;;;;33.20;30.44;101071.75;5033569;28;20049;-56
2022/06/23 08:52:01;;;;;;;6.78;3.22;;;;;;;33.15;30.80;101081.28;5017537;28;20049;-56
2022/06/23 08:54:40;;;;;;;7.72;3.15;;;;;;;33.23;31.35;101076.84;5033739;28;20064;-56
2022/06/23 08:57:26;;;;;;;8.77;4.20;;;;;;;33.61;30.40;101082.13;5033587;28;20056;-53
2022/06/23 09:00:05;;;;;;;8.38;3.60;;;;;;;34.00;29.90;101082.69;5018462;28;20125;-53
2022/06/23 09:02:46;;;;;;;10.20;3.70;;;;;;;34.21;29.53;101091.22;5032914;28;20122;-56
2022/06/23 09:05:43;;;;;;;6.15;3.58;;;;;;;33.37;30.08;101082.75;5033020;28;20492;-53
2022/06/23 09:08:21;;;;;;;6.18;3.15;;;;;;;33.02;31.42;101081.63;5023770;28;20522;-54
2022/06/23 09:10:59;;;;;;;5.28;3.30;;;;;;;32.63;31.22;101087.13;5033273;28;20056;-54
2022/06/23 09:14:19;;;;;;;4.70;3.10;;;;;;;32.18;31.93;101088.78;5033410;28;20088;-53
2022/06/23 09:17:31;;;;;;;5.03;3.60;;;;;;;31.89;32.08;101086.97;5028387;28;20059;-53
2022/06/23 09:20:15;;;;;;;8.40;4.05;;;;;;;31.69;32.67;101090.59;5018205;28;20099;-54
2022/06/23 09:23:41;;;;;;;6.73;4.07;;;;;;;31.13;32.93;101096.53;5033017;28;20068;-52
2022/06/23 09:26:27;;;;;;;9.18;4.82;;;;;;;30.66;33.65;101098.88;5020123;28;20053;-53
2022/06/23 09:29:06;;;;;;;10.25;4.72;;;;;;;30.49;34.16;101098.63;5029322;28;20486;-53
2022/06/23 09:31:56;;;;;;;9.00;4.40;;;;;;;30.28;34.68;101112.03;5032990;28;20049;-53
2022/06/23 09:34:50;;;;;;;11.35;4.43;;;;;;;29.97;34.55;101101.19;5032848;28;20061;-54
2022/06/23 09:38:00;;;;;;;14.57;4.75;;;;;;;29.82;35.18;101107.84;5032219;28;20394;-51
2022/06/23 09:40:53;;;;;;;13.77;3.58;;;;;;;29.78;35.60;101109.06;5021526;28;20068;-52
2022/06/23 09:44:05;;;;;;;7.65;3.92;;;;;;;29.72;35.19;101114.91;5032827;28;20110;-55
2022/06/23 09:46:55;;;;;;;5.72;3.47;;;;;;;29.46;35.39;101112.56;5015397;28;20371;-52
2022/06/23 09:50:12;;;;;;;10.75;3.58;;;;;;;29.40;35.73;101121.03;5032900;28;20053;-54
2022/06/23 09:53:05;;;;;;;8.75;3.70;;;;;;;29.07;36.63;101113.91;5027487;28;20056;-52
2022/06/23 09:56:21;;;;;;;6.40;3.85;;;;;;;29.04;36.34;101113.31;5032719;28;20091;-52
2022/06/23 09:59:21;;;;;;;7.43;3.78;;;;;;;29.20;36.33;101113.78;5032874;28;20049;-51
2022/06/23 10:02:01;;;;;;;68.65;8.30;;;;;;;29.29;36.04;101123.72;4995138;28;20045;-52
2022/06/23 10:04:51;;;;;;;5.70;3.33;;;;;;;29.04;36.26;101115.97;5022299;28;20061;-53
2022/06/23 10:07:49;;;;;;;11.05;4.47;;;;;;;28.74;37.22;101112.06;5032633;28;20517;-54
2022/06/23 10:10:35;;;;;;;6.80;3.28;;;;;;;28.70;37.30;101115.09;5020747;28;20053;-55
2022/06/23 10:13:47;;;;;;;166.27;17.20;;;;;;;28.75;37.26;101103.09;5031448;28;20053;-56
2022/06/23 10:16:37;;;;;;;12.88;4.43;;;;;;;28.53;37.74;101113.72;5014318;28;20128;-53
2022/06/23 10:19:35;;;;;;;6.20;3.50;;;;;;;28.49;37.79;101101.59;5032204;28;20355;-53
2022/06/23 10:22:32;;;;;;;118.05;11.20;;;;;;;28.52;37.98;101106.69;5024935;28;20084;-56
2022/06/23 10:25:28;;;;;;;59.38;7.20;;;;;;;28.53;37.84;101101.25;5032484;28;20055;-54
2022/06/23 10:28:16;;;;;;;7.65;3.00;;;;;;;28.67;37.61;101100.19;5017468;28;20128;-53
2022/06/23 10:30:59;;;;;;;8.40;3.90;;;;;;;28.80;37.60;101095.56;5031964;28;20402;-53
2022/06/23 10:33:58;;;;;;;8.30;3.67;;;;;;;28.60;37.57;101104.28;5029193;28;20425;-52
2022/06/23 10:36:55;;;;;;;12.13;4.50;;;;;;;28.47;37.50;101103.53;5034621;28;20057;-57
2022/06/23 10:40:11;;;;;;;8.10;3.67;;;;;;;28.15;38.12;101109.50;5036559;28;20046;-54
2022/06/23 10:43:08;;;;;;;10.68;4.25;;;;;;;28.02;38.13;101108.72;5035948;28;20470;-53
2022/06/23 10:45:43;;;;;;;6.60;3.90;;;;;;;27.96;38.66;101109.19;5035673;28;20064;-56
2022/06/23 10:48:47;;;;;;;15.50;4.57;;;;;;;27.95;38.68;101113.66;5034898;28;20490;-55
2022/06/23 10:51:28;;;;;;;11.07;3.45;;;;;;;27.99;38.76;101111.59;5036018;28;20045;-55
2022/06/23 10:54:28;;;;;;;24.98;4.25;;;;;;;27.96;38.33;101114.50;5020877;28;20083;-54
2022/06/23 10:57:31;;;;;;;4.78;3.35;;;;;;;27.60;39.24;101104.75;5035878;28;20402;-52
2022/06/23 11:00:15;;;;;;;24.80;4.95;;;;;;;27.35;39.43;101103.03;5004884;28;20443;-53
2022/06/23 11:03:16;;;;;;;9.57;3.72;;;;;;;27.33;40.10;101110.28;5035732;28;20064;-52
2022/06/23 11:09:17;;;;;;;103.05;11.10;;;;;;;26.94;40.31;101117.44;5035431;28;20911;-52
2022/06/23 11:11:59;;;;;;;6.70;3.60;;;;;;;26.81;40.26;101121.06;5034802;28;20124;-55
2022/06/23 11:14:48;;;;;;;12.80;4.10;;;;;;;26.74;40.53;101125.97;5035695;28;20069;-54
2022/06/23 11:17:34;;;;;;;13.25;4.32;;;;;;;26.66;40.88;101115.88;5035598;28;20049;-53
2022/06/23 11:20:24;;;;;;;6.53;3.83;;;;;;;26.52;40.69;101115.09;5021109;28;20049;-53
2022/06/23 11:23:01;;;;;;;8.63;4.03;;;;;;;26.37;41.02;101109.03;5035129;28;20089;-55
2022/06/23 11:25:46;;;;;;;9.63;4.30;;;;;;;26.29;40.76;101112.19;5035759;28;20119;-56
2022/06/23 11:28:26;;;;;;;9.90;3.40;;;;;;;26.15;41.84;101108.78;5035643;28;20073;-53
2022/06/23 11:31:14;;;;;;;32.67;5.57;;;;;;;25.99;42.21;101103.63;5033768;28;20140;-53
2022/06/23 11:33:54;;;;;;;187.65;15.93;;;;;;;25.88;43.08;101100.84;5035483;28;20060;-52
2022/06/23 11:36:43;;;;;;;7.90;4.20;;;;;;;25.90;42.43;101112.19;5035231;28;20045;-52
2022/06/23 11:42:48;;;;;;;288.77;21.92;;;;;;;25.90;42.52;101120.16;5021533;28;20053;-55
2022/06/23 11:45:36;;;;;;;;;;;;;;;25.76;42.48;101113.13;5033914;28;20359;-55
2022/06/23 11:48:39;;;;;;;36.17;6.20;;;;;;;25.79;42.90;101113.75;5029504;28;19930;-51
2022/06/23 11:51:19;;;;;;;7.88;4.00;;;;;;;25.91;42.42;101122.72;5034533;28;20757;-51
2022/06/23 11:54:24;;;;;;;6.35;3.78;;;;;;;25.91;42.54;101121.88;5018297;28;20128;-53
2022/06/23 11:57:15;;;;;;;7.88;4.05;;;;;;;25.76;42.33;101123.75;5034459;28;20076;-51
2022/06/23 12:00:03;;;;;;;15.20;4.32;;;;;;;25.55;43.22;101125.97;5034454;28;20056;-52
2022/06/23 12:02:42;;;;;;;8.38;3.55;;;;;;;25.59;43.58;101122.16;5034619;28;20355;-52
2022/06/23 12:05:34;;;;;;;7.72;4.05;;;;;;;25.66;43.89;101128.81;5034416;28;20088;-52
2022/06/23 12:08:42;;;;;;;9.48;3.60;;;;;;;25.58;42.76;101125.75;5023131;28;20089;-52
2022/06/23 12:11:08;;;;;;;40.17;5.80;;;;;;;25.39;43.91;101114.59;5034281;28;20104;-52
2022/06/23 12:13:38;;;;;;;8.07;3.53;;;;;;;25.34;43.85;101122.00;5034727;28;20167;-52
2022/06/23 12:16:08;;;;;;;7.35;3.60;;;;;;;25.26;44.01;101124.31;5034161;28;20348;-51
2022/06/23 12:18:43;;;;;;;65.65;6.05;;;;;;;25.31;44.28;101116.91;5034327;28;20544;-54
2022/06/23 12:21:25;;;;;;;7.40;3.13;;;;;;;25.35;43.82;101115.75;5034078;28;20053;-54
2022/06/23 12:24:03;;;;;;;4.28;2.83;;;;;;;25.36;43.61;101125.41;5018655;28;20052;-52
2022/06/23 12:26:45;;;;;;;68.88;7.38;;;;;;;25.31;43.67;101123.06;5033674;28;20053;-55
2022/06/23 12:29:24;;;;;;;11.15;3.45;;;;;;;25.36;43.82;101120.13;5033675;28;20052;-53
2022/06/23 12:32:13;;;;;;;9.77;3.17;;;;;;;25.36;43.24;101122.75;5018617;28;20463;-52
2022/06/23 12:35:10;;;;;;;5.50;3.22;;;;;;;25.25;43.05;101134.06;5033980;28;20496;-52
2022/06/23 12:37:50;;;;;;;9.23;3.10;;;;;;;25.21;43.69;101115.78;5033848;28;20076;-51
2022/06/23 12:40:26;;;;;;;7.82;3.28;;;;;;;25.24;43.89;101126.19;5031517;28;20052;-51
2022/06/23 12:43:01;;;;;;;138.45;13.05;;;;;;;25.21;44.18;101126.41;5032101;28;20042;-52
2022/06/23 12:45:57;;;;;;;16.13;4.22;;;;;;;25.27;43.93;101126.00;5033147;28;20470;-51
2022/06/23 12:48:49;;;;;;;5.15;2.60;;;;;;;25.38;43.98;101118.22;5032266;28;20534;-51
2022/06/23 12:51:28;;;;;;;7.05;3.55;;;;;;;25.50;44.00;101128.06;5027048;28;20053;-51